sensor_id;sensor_type;location;lat;lon;timestamp;P1;durP1;ratioP1;P2;durP2;ratioP2
5483;SDS011;2764;48.794;8.326;2023-03-19T00:00:55;5.87;;;3.13;;
5483;SDS011;2764;48.794;8.326;2023-03-19T00:01:57;3.27;;;3.07;;
5483;SDS011;2764;48.794;8.326;2023-03-19T00:03:12;6.17;;;3.83;;
5483;SDS011;2764;48.794;8.326;2023-03-19T00:04:14;6.60;;;3.57;;
5483;SDS011;2764;48.794;8.326;2023-03-19T00:05:17;9.80;;;5.00;;
5483;SDS011;2764;48.794;8.326;2023-03-19T00:06:19;10.77;;;5.83;;
5483;SDS011;2764;48.794;8.326;2023-03-19T00:07:21;65.87;;;30.13;;
5483;SDS011;2764;48.794;8.326;2023-03-19T00:08:23;44.07;;;21.70;;
5483;SDS011;2764;48.794;8.326;2023-03-19T00:09:24;53.07;;;24.67;;
5483;SDS011;2764;48.794;8.326;2023-03-19T00:10:27;85.37;;;36.93;;
5483;SDS011;2764;48.794;8.326;2023-03-19T00:11:29;30.63;;;15.97;;
5483;SDS011;2764;48.794;8.326;2023-03-19T00:12:31;8.77;;;4.40;;
5483;SDS011;2764;48.794;8.326;2023-03-19T00:13:32;11.50;;;3.37;;
5483;SDS011;2764;48.794;8.326;2023-03-19T00:14:34;7.30;;;3.20;;
5483;SDS011;2764;48.794;8.326;2023-03-19T00:15:36;5.23;;;3.13;;
5483;SDS011;2764;48.794;8.326;2023-03-19T00:16:38;4.37;;;3.00;;
5483;SDS011;2764;48.794;8.326;2023-03-19T00:17:40;12.57;;;3.50;;
5483;SDS011;2764;48.794;8.326;2023-03-19T00:18:43;4.13;;;3.33;;
5483;SDS011;2764;48.794;8.326;2023-03-19T00:19:45;3.30;;;3.00;;
5483;SDS011;2764;48.794;8.326;2023-03-19T00:20:46;8.23;;;3.67;;
5483;SDS011;2764;48.794;8.326;2023-03-19T00:21:48;9.00;;;3.53;;
5483;SDS011;2764;48.794;8.326;2023-03-19T00:22:50;12.27;;;6.00;;
5483;SDS011;2764;48.794;8.326;2023-03-19T00:23:51;7.10;;;5.30;;
5483;SDS011;2764;48.794;8.326;2023-03-19T00:24:53;10.20;;;5.37;;
5483;SDS011;2764;48.794;8.326;2023-03-19T00:25:55;12.47;;;6.20;;
5483;SDS011;2764;48.794;8.326;2023-03-19T00:26:57;11.43;;;6.23;;
5483;SDS011;2764;48.794;8.326;2023-03-19T00:27:59;11.83;;;5.03;;
5483;SDS011;2764;48.794;8.326;2023-03-19T00:29:00;6.10;;;3.57;;
5483;SDS011;2764;48.794;8.326;2023-03-19T00:30:03;7.47;;;4.20;;
5483;SDS011;2764;48.794;8.326;2023-03-19T00:31:12;6.40;;;3.93;;
5483;SDS011;2764;48.794;8.326;2023-03-19T00:32:14;8.53;;;4.40;;
5483;SDS011;2764;48.794;8.326;2023-03-19T00:33:16;26.27;;;11.87;;
5483;SDS011;2764;48.794;8.326;2023-03-19T00:34:18;46.43;;;16.97;;
5483;SDS011;2764;48.794;8.326;2023-03-19T00:35:20;61.30;;;24.77;;
5483;SDS011;2764;48.794;8.326;2023-03-19T00:36:22;14.03;;;6.30;;
5483;SDS011;2764;48.794;8.326;2023-03-19T00:37:25;11.10;;;5.83;;
5483;SDS011;2764;48.794;8.326;2023-03-19T00:38:27;20.30;;;6.43;;
5483;SDS011;2764;48.794;8.326;2023-03-19T00:39:29;12.73;;;6.60;;
5483;SDS011;2764;48.794;8.326;2023-03-19T00:40:31;6.37;;;5.30;;
5483;SDS011;2764;48.794;8.326;2023-03-19T00:41:34;8.20;;;5.20;;
5483;SDS011;2764;48.794;8.326;2023-03-19T00:42:36;6.17;;;4.30;;
5483;SDS011;2764;48.794;8.326;2023-03-19T00:43:37;7.47;;;4.90;;
5483;SDS011;2764;48.794;8.326;2023-03-19T00:44:39;7.13;;;4.30;;
5483;SDS011;2764;48.794;8.326;2023-03-19T00:45:41;6.87;;;4.27;;
5483;SDS011;2764;48.794;8.326;2023-03-19T00:46:44;5.17;;;4.00;;
5483;SDS011;2764;48.794;8.326;2023-03-19T00:47:46;5.87;;;5.03;;
5483;SDS011;2764;48.794;8.326;2023-03-19T00:48:48;4.83;;;3.80;;
5483;SDS011;2764;48.794;8.326;2023-03-19T00:49:49;7.90;;;3.73;;
5483;SDS011;2764;48.794;8.326;2023-03-19T00:50:51;4.80;;;3.63;;
5483;SDS011;2764;48.794;8.326;2023-03-19T00:51:53;4.33;;;3.57;;
5483;SDS011;2764;48.794;8.326;2023-03-19T00:52:55;7.80;;;5.03;;
5483;SDS011;2764;48.794;8.326;2023-03-19T00:53:57;10.20;;;3.97;;
5483;SDS011;2764;48.794;8.326;2023-03-19T00:54:59;8.67;;;5.27;;
5483;SDS011;2764;48.794;8.326;2023-03-19T00:56:01;15.23;;;4.13;;
5483;SDS011;2764;48.794;8.326;2023-03-19T00:57:02;5.53;;;3.57;;
5483;SDS011;2764;48.794;8.326;2023-03-19T00:58:04;9.70;;;4.17;;
5483;SDS011;2764;48.794;8.326;2023-03-19T00:59:06;6.47;;;4.10;;
5483;SDS011;2764;48.794;8.326;2023-03-19T01:00:08;7.90;;;4.23;;
5483;SDS011;2764;48.794;8.326;2023-03-19T01:01:12;8.13;;;4.77;;
5483;SDS011;2764;48.794;8.326;2023-03-19T01:02:14;9.30;;;4.67;;
5483;SDS011;2764;48.794;8.326;2023-03-19T01:03:16;7.83;;;4.60;;
5483;SDS011;2764;48.794;8.326;2023-03-19T01:04:17;6.90;;;4.47;;
5483;SDS011;2764;48.794;8.326;2023-03-19T01:05:19;8.57;;;4.10;;
5483;SDS011;2764;48.794;8.326;2023-03-19T01:06:21;8.83;;;5.10;;
5483;SDS011;2764;48.794;8.326;2023-03-19T01:07:23;10.20;;;5.10;;
5483;SDS011;2764;48.794;8.326;2023-03-19T01:08:25;6.23;;;4.60;;
5483;SDS011;2764;48.794;8.326;2023-03-19T01:09:27;12.33;;;4.13;;
5483;SDS011;2764;48.794;8.326;2023-03-19T01:10:29;8.37;;;4.47;;
5483;SDS011;2764;48.794;8.326;2023-03-19T01:11:33;6.40;;;3.90;;
5483;SDS011;2764;48.794;8.326;2023-03-19T01:12:34;8.30;;;3.70;;
5483;SDS011;2764;48.794;8.326;2023-03-19T01:13:36;6.93;;;4.13;;
5483;SDS011;2764;48.794;8.326;2023-03-19T01:14:39;4.13;;;3.73;;
5483;SDS011;2764;48.794;8.326;2023-03-19T01:15:41;6.83;;;3.67;;
5483;SDS011;2764;48.794;8.326;2023-03-19T01:16:43;4.70;;;3.53;;
5483;SDS011;2764;48.794;8.326;2023-03-19T01:17:45;8.33;;;4.70;;
5483;SDS011;2764;48.794;8.326;2023-03-19T01:18:47;6.23;;;4.70;;
5483;SDS011;2764;48.794;8.326;2023-03-19T01:19:49;10.47;;;5.20;;
5483;SDS011;2764;48.794;8.326;2023-03-19T01:20:50;8.50;;;4.20;;
5483;SDS011;2764;48.794;8.326;2023-03-19T01:21:52;5.83;;;4.00;;
5483;SDS011;2764;48.794;8.326;2023-03-19T01:22:54;12.83;;;4.20;;
5483;SDS011;2764;48.794;8.326;2023-03-19T01:23:56;9.07;;;4.57;;
5483;SDS011;2764;48.794;8.326;2023-03-19T01:24:58;10.87;;;4.10;;
5483;SDS011;2764;48.794;8.326;2023-03-19T01:25:59;5.30;;;3.90;;
5483;SDS011;2764;48.794;8.326;2023-03-19T01:27:01;4.17;;;3.47;;
5483;SDS011;2764;48.794;8.326;2023-03-19T01:28:02;6.93;;;3.83;;
5483;SDS011;2764;48.794;8.326;2023-03-19T01:29:04;5.33;;;3.67;;
5483;SDS011;2764;48.794;8.326;2023-03-19T01:30:06;7.57;;;3.83;;
5483;SDS011;2764;48.794;8.326;2023-03-19T01:31:09;6.10;;;3.77;;
5483;SDS011;2764;48.794;8.326;2023-03-19T01:32:12;8.07;;;4.20;;
5483;SDS011;2764;48.794;8.326;2023-03-19T01:33:14;12.10;;;5.33;;
5483;SDS011;2764;48.794;8.326;2023-03-19T01:34:15;4.00;;;3.20;;
5483;SDS011;2764;48.794;8.326;2023-03-19T01:35:17;5.43;;;3.70;;
5483;SDS011;2764;48.794;8.326;2023-03-19T01:36:19;8.07;;;3.67;;
5483;SDS011;2764;48.794;8.326;2023-03-19T01:37:20;4.53;;;4.07;;
5483;SDS011;2764;48.794;8.326;2023-03-19T01:38:22;4.07;;;3.67;;
5483;SDS011;2764;48.794;8.326;2023-03-19T01:39:24;6.80;;;3.53;;
5483;SDS011;2764;48.794;8.326;2023-03-19T01:40:28;8.03;;;3.73;;
5483;SDS011;2764;48.794;8.326;2023-03-19T01:41:29;6.13;;;4.27;;
5483;SDS011;2764;48.794;8.326;2023-03-19T01:42:31;10.40;;;6.00;;
5483;SDS011;2764;48.794;8.326;2023-03-19T01:43:33;12.63;;;5.67;;
5483;SDS011;2764;48.794;8.326;2023-03-19T01:44:35;6.63;;;4.37;;
5483;SDS011;2764;48.794;8.326;2023-03-19T01:45:38;7.83;;;4.17;;
5483;SDS011;2764;48.794;8.326;2023-03-19T01:46:40;5.40;;;3.60;;
5483;SDS011;2764;48.794;8.326;2023-03-19T01:47:42;7.03;;;3.50;;
5483;SDS011;2764;48.794;8.326;2023-03-19T01:48:46;7.63;;;4.37;;
5483;SDS011;2764;48.794;8.326;2023-03-19T01:49:52;10.83;;;4.10;;
5483;SDS011;2764;48.794;8.326;2023-03-19T01:50:54;7.00;;;3.73;;
5483;SDS011;2764;48.794;8.326;2023-03-19T01:51:57;12.03;;;5.17;;
5483;SDS011;2764;48.794;8.326;2023-03-19T01:52:59;10.77;;;4.63;;
5483;SDS011;2764;48.794;8.326;2023-03-19T01:54:02;7.37;;;3.90;;
5483;SDS011;2764;48.794;8.326;2023-03-19T01:55:05;6.07;;;3.27;;
5483;SDS011;2764;48.794;8.326;2023-03-19T01:56:08;6.97;;;3.80;;
5483;SDS011;2764;48.794;8.326;2023-03-19T01:57:12;10.63;;;3.57;;
5483;SDS011;2764;48.794;8.326;2023-03-19T01:58:14;13.83;;;4.07;;
5483;SDS011;2764;48.794;8.326;2023-03-19T01:59:17;6.43;;;3.93;;
5483;SDS011;2764;48.794;8.326;2023-03-19T02:00:22;7.70;;;3.30;;
5483;SDS011;2764;48.794;8.326;2023-03-19T02:01:24;3.30;;;2.87;;
5483;SDS011;2764;48.794;8.326;2023-03-19T02:02:28;6.63;;;2.60;;
5483;SDS011;2764;48.794;8.326;2023-03-19T02:03:30;6.03;;;2.73;;
5483;SDS011;2764;48.794;8.326;2023-03-19T02:04:33;3.30;;;3.00;;
5483;SDS011;2764;48.794;8.326;2023-03-19T02:05:36;7.18;;;2.83;;
5483;SDS011;2764;48.794;8.326;2023-03-19T02:06:38;5.43;;;2.83;;
5483;SDS011;2764;48.794;8.326;2023-03-19T02:07:40;7.40;;;3.63;;
5483;SDS011;2764;48.794;8.326;2023-03-19T02:08:43;9.30;;;2.60;;
5483;SDS011;2764;48.794;8.326;2023-03-19T02:09:47;2.53;;;2.33;;
5483;SDS011;2764;48.794;8.326;2023-03-19T02:10:49;5.90;;;3.30;;
5483;SDS011;2764;48.794;8.326;2023-03-19T02:11:52;4.23;;;3.13;;
5483;SDS011;2764;48.794;8.326;2023-03-19T02:12:54;4.17;;;2.70;;
5483;SDS011;2764;48.794;8.326;2023-03-19T02:13:56;3.07;;;2.40;;
5483;SDS011;2764;48.794;8.326;2023-03-19T02:14:58;12.20;;;2.87;;
5483;SDS011;2764;48.794;8.326;2023-03-19T02:16:00;7.10;;;2.50;;
5483;SDS011;2764;48.794;8.326;2023-03-19T02:17:01;3.77;;;2.83;;
5483;SDS011;2764;48.794;8.326;2023-03-19T02:18:04;7.43;;;2.80;;
5483;SDS011;2764;48.794;8.326;2023-03-19T02:19:06;9.03;;;2.97;;
5483;SDS011;2764;48.794;8.326;2023-03-19T02:21:16;3.87;;;3.57;;
5483;SDS011;2764;48.794;8.326;2023-03-19T02:22:20;5.90;;;3.10;;
5483;SDS011;2764;48.794;8.326;2023-03-19T02:23:25;4.30;;;3.27;;
5483;SDS011;2764;48.794;8.326;2023-03-19T02:24:40;4.27;;;2.80;;
5483;SDS011;2764;48.794;8.326;2023-03-19T02:26:47;3.87;;;3.13;;
5483;SDS011;2764;48.794;8.326;2023-03-19T02:27:50;4.77;;;3.10;;
5483;SDS011;2764;48.794;8.326;2023-03-19T02:28:52;3.63;;;3.10;;
5483;SDS011;2764;48.794;8.326;2023-03-19T02:29:54;7.20;;;2.87;;
5483;SDS011;2764;48.794;8.326;2023-03-19T02:30:56;2.93;;;2.73;;
5483;SDS011;2764;48.794;8.326;2023-03-19T02:31:57;10.00;;;3.20;;
5483;SDS011;2764;48.794;8.326;2023-03-19T02:32:59;4.67;;;3.13;;
5483;SDS011;2764;48.794;8.326;2023-03-19T02:34:05;4.30;;;2.37;;
5483;SDS011;2764;48.794;8.326;2023-03-19T02:35:07;3.53;;;3.07;;
5483;SDS011;2764;48.794;8.326;2023-03-19T02:36:12;4.03;;;2.53;;
5483;SDS011;2764;48.794;8.326;2023-03-19T02:37:21;6.73;;;3.60;;
5483;SDS011;2764;48.794;8.326;2023-03-19T02:38:24;10.03;;;3.53;;
5483;SDS011;2764;48.794;8.326;2023-03-19T02:40:35;6.60;;;2.70;;
5483;SDS011;2764;48.794;8.326;2023-03-19T02:41:38;6.93;;;2.80;;
5483;SDS011;2764;48.794;8.326;2023-03-19T02:42:41;6.20;;;2.93;;
5483;SDS011;2764;48.794;8.326;2023-03-19T02:43:43;4.90;;;2.83;;
5483;SDS011;2764;48.794;8.326;2023-03-19T02:44:45;3.43;;;2.70;;
5483;SDS011;2764;48.794;8.326;2023-03-19T02:45:47;5.40;;;3.47;;
5483;SDS011;2764;48.794;8.326;2023-03-19T02:46:49;3.93;;;2.83;;
5483;SDS011;2764;48.794;8.326;2023-03-19T02:47:52;3.63;;;2.87;;
5483;SDS011;2764;48.794;8.326;2023-03-19T02:48:53;5.60;;;3.30;;
5483;SDS011;2764;48.794;8.326;2023-03-19T02:49:55;18.07;;;3.07;;
5483;SDS011;2764;48.794;8.326;2023-03-19T02:50:56;11.90;;;3.00;;
5483;SDS011;2764;48.794;8.326;2023-03-19T02:51:58;5.90;;;3.00;;
5483;SDS011;2764;48.794;8.326;2023-03-19T02:53:04;5.27;;;3.33;;
5483;SDS011;2764;48.794;8.326;2023-03-19T02:54:06;2.80;;;2.60;;
5483;SDS011;2764;48.794;8.326;2023-03-19T02:55:08;3.57;;;2.73;;
5483;SDS011;2764;48.794;8.326;2023-03-19T02:56:10;3.67;;;2.40;;
5483;SDS011;2764;48.794;8.326;2023-03-19T02:57:11;4.97;;;3.10;;
5483;SDS011;2764;48.794;8.326;2023-03-19T02:58:13;3.63;;;2.60;;
5483;SDS011;2764;48.794;8.326;2023-03-19T02:59:14;8.93;;;3.13;;
5483;SDS011;2764;48.794;8.326;2023-03-19T03:00:16;3.80;;;2.90;;
5483;SDS011;2764;48.794;8.326;2023-03-19T03:01:19;4.67;;;2.93;;
5483;SDS011;2764;48.794;8.326;2023-03-19T03:02:21;2.67;;;2.47;;
5483;SDS011;2764;48.794;8.326;2023-03-19T03:03:22;7.57;;;3.20;;
5483;SDS011;2764;48.794;8.326;2023-03-19T03:04:24;3.17;;;2.87;;
5483;SDS011;2764;48.794;8.326;2023-03-19T03:05:27;7.43;;;3.00;;
5483;SDS011;2764;48.794;8.326;2023-03-19T03:06:28;2.40;;;2.20;;
5483;SDS011;2764;48.794;8.326;2023-03-19T03:07:30;5.23;;;2.93;;
5483;SDS011;2764;48.794;8.326;2023-03-19T03:08:31;5.50;;;2.73;;
5483;SDS011;2764;48.794;8.326;2023-03-19T03:09:33;5.97;;;3.27;;
5483;SDS011;2764;48.794;8.326;2023-03-19T03:10:36;8.40;;;2.83;;
5483;SDS011;2764;48.794;8.326;2023-03-19T03:11:38;2.60;;;2.40;;
5483;SDS011;2764;48.794;8.326;2023-03-19T03:12:41;2.83;;;2.63;;
5483;SDS011;2764;48.794;8.326;2023-03-19T03:13:43;6.97;;;2.87;;
5483;SDS011;2764;48.794;8.326;2023-03-19T03:14:46;7.90;;;2.70;;
5483;SDS011;2764;48.794;8.326;2023-03-19T03:15:48;6.60;;;3.03;;
5483;SDS011;2764;48.794;8.326;2023-03-19T03:16:51;3.47;;;2.50;;
5483;SDS011;2764;48.794;8.326;2023-03-19T03:17:53;7.23;;;2.50;;
5483;SDS011;2764;48.794;8.326;2023-03-19T03:18:56;8.27;;;2.70;;
5483;SDS011;2764;48.794;8.326;2023-03-19T03:19:58;2.60;;;2.40;;
5483;SDS011;2764;48.794;8.326;2023-03-19T03:20:59;5.17;;;2.83;;
5483;SDS011;2764;48.794;8.326;2023-03-19T03:22:01;4.63;;;2.70;;
5483;SDS011;2764;48.794;8.326;2023-03-19T03:23:03;2.60;;;2.40;;
5483;SDS011;2764;48.794;8.326;2023-03-19T03:24:04;5.80;;;2.93;;
5483;SDS011;2764;48.794;8.326;2023-03-19T03:25:06;4.13;;;2.67;;
5483;SDS011;2764;48.794;8.326;2023-03-19T03:26:09;3.27;;;2.90;;
5483;SDS011;2764;48.794;8.326;2023-03-19T03:27:10;4.30;;;2.33;;
5483;SDS011;2764;48.794;8.326;2023-03-19T03:28:12;3.07;;;2.83;;
5483;SDS011;2764;48.794;8.326;2023-03-19T03:29:13;5.27;;;2.57;;
5483;SDS011;2764;48.794;8.326;2023-03-19T03:30:15;2.80;;;2.60;;
5483;SDS011;2764;48.794;8.326;2023-03-19T03:31:17;2.80;;;2.60;;
5483;SDS011;2764;48.794;8.326;2023-03-19T03:32:19;4.30;;;2.63;;
5483;SDS011;2764;48.794;8.326;2023-03-19T03:33:21;4.30;;;3.03;;
5483;SDS011;2764;48.794;8.326;2023-03-19T03:34:22;2.53;;;2.33;;
5483;SDS011;2764;48.794;8.326;2023-03-19T03:35:24;6.53;;;3.00;;
5483;SDS011;2764;48.794;8.326;2023-03-19T03:36:26;4.47;;;2.87;;
5483;SDS011;2764;48.794;8.326;2023-03-19T03:37:27;5.10;;;2.70;;
5483;SDS011;2764;48.794;8.326;2023-03-19T03:38:29;3.00;;;2.67;;
5483;SDS011;2764;48.794;8.326;2023-03-19T03:39:33;6.10;;;3.07;;
5483;SDS011;2764;48.794;8.326;2023-03-19T03:40:34;3.90;;;2.50;;
5483;SDS011;2764;48.794;8.326;2023-03-19T03:41:37;6.30;;;2.47;;
5483;SDS011;2764;48.794;8.326;2023-03-19T03:42:38;3.80;;;2.50;;
5483;SDS011;2764;48.794;8.326;2023-03-19T03:43:40;4.77;;;2.90;;
5483;SDS011;2764;48.794;8.326;2023-03-19T03:44:42;7.70;;;3.27;;
5483;SDS011;2764;48.794;8.326;2023-03-19T03:45:44;10.40;;;3.47;;
5483;SDS011;2764;48.794;8.326;2023-03-19T03:46:46;8.60;;;2.97;;
5483;SDS011;2764;48.794;8.326;2023-03-19T03:47:48;4.33;;;2.50;;
5483;SDS011;2764;48.794;8.326;2023-03-19T03:48:49;5.50;;;2.80;;
5483;SDS011;2764;48.794;8.326;2023-03-19T03:49:51;3.60;;;2.63;;
5483;SDS011;2764;48.794;8.326;2023-03-19T03:50:53;3.83;;;3.10;;
5483;SDS011;2764;48.794;8.326;2023-03-19T03:51:55;10.17;;;3.77;;
5483;SDS011;2764;48.794;8.326;2023-03-19T03:52:57;4.53;;;3.77;;
5483;SDS011;2764;48.794;8.326;2023-03-19T03:53:59;10.47;;;3.83;;
5483;SDS011;2764;48.794;8.326;2023-03-19T03:55:01;3.65;;;3.30;;
5483;SDS011;2764;48.794;8.326;2023-03-19T03:56:03;3.90;;;3.37;;
5483;SDS011;2764;48.794;8.326;2023-03-19T03:57:05;8.70;;;2.70;;
5483;SDS011;2764;48.794;8.326;2023-03-19T03:58:06;5.40;;;2.53;;
5483;SDS011;2764;48.794;8.326;2023-03-19T03:59:08;5.25;;;3.20;;
5483;SDS011;2764;48.794;8.326;2023-03-19T04:00:10;5.90;;;3.03;;
5483;SDS011;2764;48.794;8.326;2023-03-19T04:01:16;5.70;;;3.50;;
5483;SDS011;2764;48.794;8.326;2023-03-19T04:02:18;5.82;;;3.13;;
5483;SDS011;2764;48.794;8.326;2023-03-19T04:03:20;5.67;;;2.90;;
5483;SDS011;2764;48.794;8.326;2023-03-19T04:04:22;6.33;;;2.70;;
5483;SDS011;2764;48.794;8.326;2023-03-19T04:05:24;3.50;;;2.90;;
5483;SDS011;2764;48.794;8.326;2023-03-19T04:06:27;5.23;;;3.37;;
5483;SDS011;2764;48.794;8.326;2023-03-19T04:07:29;8.73;;;3.40;;
5483;SDS011;2764;48.794;8.326;2023-03-19T04:08:30;7.97;;;2.83;;
5483;SDS011;2764;48.794;8.326;2023-03-19T04:09:32;5.05;;;2.90;;
5483;SDS011;2764;48.794;8.326;2023-03-19T04:10:33;3.40;;;3.10;;
5483;SDS011;2764;48.794;8.326;2023-03-19T04:11:37;4.07;;;3.67;;
5483;SDS011;2764;48.794;8.326;2023-03-19T04:12:39;8.47;;;3.90;;
5483;SDS011;2764;48.794;8.326;2023-03-19T04:13:40;7.45;;;3.50;;
5483;SDS011;2764;48.794;8.326;2023-03-19T04:14:42;3.15;;;2.75;;
5483;SDS011;2764;48.794;8.326;2023-03-19T04:15:44;4.93;;;3.53;;
5483;SDS011;2764;48.794;8.326;2023-03-19T04:16:46;10.13;;;3.10;;
5483;SDS011;2764;48.794;8.326;2023-03-19T04:17:48;4.82;;;3.55;;
5483;SDS011;2764;48.794;8.326;2023-03-19T04:18:50;6.40;;;3.00;;
5483;SDS011;2764;48.794;8.326;2023-03-19T04:19:52;5.60;;;3.93;;
5483;SDS011;2764;48.794;8.326;2023-03-19T04:20:53;11.10;;;4.20;;
5483;SDS011;2764;48.794;8.326;2023-03-19T04:21:55;14.63;;;3.33;;
5483;SDS011;2764;48.794;8.326;2023-03-19T04:22:57;3.72;;;3.42;;
5483;SDS011;2764;48.794;8.326;2023-03-19T04:23:58;6.10;;;3.40;;
5483;SDS011;2764;48.794;8.326;2023-03-19T04:25:00;9.40;;;3.37;;
5483;SDS011;2764;48.794;8.326;2023-03-19T04:26:03;7.33;;;3.80;;
5483;SDS011;2764;48.794;8.326;2023-03-19T04:27:05;3.97;;;3.37;;
5483;SDS011;2764;48.794;8.326;2023-03-19T04:28:07;6.67;;;3.80;;
5483;SDS011;2764;48.794;8.326;2023-03-19T04:29:09;6.17;;;4.00;;
5483;SDS011;2764;48.794;8.326;2023-03-19T04:30:11;6.15;;;3.75;;
5483;SDS011;2764;48.794;8.326;2023-03-19T04:31:12;7.75;;;3.50;;
5483;SDS011;2764;48.794;8.326;2023-03-19T04:32:14;3.88;;;3.50;;
5483;SDS011;2764;48.794;8.326;2023-03-19T04:33:16;6.38;;;4.07;;
5483;SDS011;2764;48.794;8.326;2023-03-19T04:34:17;5.00;;;3.85;;
5483;SDS011;2764;48.794;8.326;2023-03-19T04:35:20;10.60;;;3.70;;
5483;SDS011;2764;48.794;8.326;2023-03-19T04:36:21;8.02;;;3.20;;
5483;SDS011;2764;48.794;8.326;2023-03-19T04:37:23;6.63;;;3.90;;
5483;SDS011;2764;48.794;8.326;2023-03-19T04:38:25;4.28;;;3.05;;
5483;SDS011;2764;48.794;8.326;2023-03-19T04:39:28;4.07;;;3.10;;
5483;SDS011;2764;48.794;8.326;2023-03-19T04:40:29;3.57;;;3.27;;
5483;SDS011;2764;48.794;8.326;2023-03-19T04:41:31;4.10;;;2.58;;
5483;SDS011;2764;48.794;8.326;2023-03-19T04:42:33;4.13;;;3.15;;
5483;SDS011;2764;48.794;8.326;2023-03-19T04:43:35;7.13;;;3.47;;
5483;SDS011;2764;48.794;8.326;2023-03-19T04:44:36;3.78;;;3.28;;
5483;SDS011;2764;48.794;8.326;2023-03-19T04:45:38;4.25;;;3.40;;
5483;SDS011;2764;48.794;8.326;2023-03-19T04:46:41;5.70;;;3.53;;
5483;SDS011;2764;48.794;8.326;2023-03-19T04:47:45;2.85;;;2.65;;
5483;SDS011;2764;48.794;8.326;2023-03-19T04:48:47;3.67;;;3.10;;
5483;SDS011;2764;48.794;8.326;2023-03-19T04:49:48;6.40;;;2.90;;
5483;SDS011;2764;48.794;8.326;2023-03-19T04:50:50;6.60;;;3.73;;
5483;SDS011;2764;48.794;8.326;2023-03-19T04:51:54;10.67;;;5.13;;
5483;SDS011;2764;48.794;8.326;2023-03-19T04:52:56;3.67;;;3.00;;
5483;SDS011;2764;48.794;8.326;2023-03-19T04:53:58;5.33;;;3.57;;
5483;SDS011;2764;48.794;8.326;2023-03-19T04:55:00;9.50;;;4.10;;
5483;SDS011;2764;48.794;8.326;2023-03-19T04:56:02;5.30;;;4.00;;
5483;SDS011;2764;48.794;8.326;2023-03-19T04:57:03;3.43;;;3.03;;
5483;SDS011;2764;48.794;8.326;2023-03-19T04:58:05;7.43;;;3.20;;
5483;SDS011;2764;48.794;8.326;2023-03-19T04:59:07;7.90;;;3.73;;
5483;SDS011;2764;48.794;8.326;2023-03-19T05:00:09;3.57;;;2.97;;
5483;SDS011;2764;48.794;8.326;2023-03-19T05:01:11;4.90;;;2.93;;
5483;SDS011;2764;48.794;8.326;2023-03-19T05:02:12;3.83;;;3.33;;
5483;SDS011;2764;48.794;8.326;2023-03-19T05:03:14;3.70;;;3.40;;
5483;SDS011;2764;48.794;8.326;2023-03-19T05:04:16;3.40;;;2.97;;
5483;SDS011;2764;48.794;8.326;2023-03-19T05:05:18;8.90;;;3.40;;
5483;SDS011;2764;48.794;8.326;2023-03-19T05:06:19;9.00;;;3.30;;
5483;SDS011;2764;48.794;8.326;2023-03-19T05:07:21;5.40;;;3.37;;
5483;SDS011;2764;48.794;8.326;2023-03-19T05:08:23;3.00;;;2.60;;
5483;SDS011;2764;48.794;8.326;2023-03-19T05:09:24;4.60;;;3.40;;
5483;SDS011;2764;48.794;8.326;2023-03-19T05:10:26;4.53;;;3.10;;
5483;SDS011;2764;48.794;8.326;2023-03-19T05:11:28;7.43;;;2.87;;
5483;SDS011;2764;48.794;8.326;2023-03-19T05:12:30;3.23;;;2.93;;
5483;SDS011;2764;48.794;8.326;2023-03-19T05:13:32;3.27;;;2.70;;
5483;SDS011;2764;48.794;8.326;2023-03-19T05:14:33;3.50;;;2.60;;
5483;SDS011;2764;48.794;8.326;2023-03-19T05:15:35;12.73;;;3.23;;
5483;SDS011;2764;48.794;8.326;2023-03-19T05:16:37;3.80;;;2.80;;
5483;SDS011;2764;48.794;8.326;2023-03-19T05:17:39;4.40;;;3.23;;
5483;SDS011;2764;48.794;8.326;2023-03-19T05:18:41;2.87;;;2.67;;
5483;SDS011;2764;48.794;8.326;2023-03-19T05:19:43;5.53;;;3.10;;
5483;SDS011;2764;48.794;8.326;2023-03-19T05:20:45;4.70;;;2.95;;
5483;SDS011;2764;48.794;8.326;2023-03-19T05:21:47;3.53;;;2.80;;
5483;SDS011;2764;48.794;8.326;2023-03-19T05:22:50;4.73;;;2.93;;
5483;SDS011;2764;48.794;8.326;2023-03-19T05:23:52;6.20;;;2.87;;
5483;SDS011;2764;48.794;8.326;2023-03-19T05:24:54;4.83;;;2.67;;
5483;SDS011;2764;48.794;8.326;2023-03-19T05:25:59;5.40;;;3.40;;
5483;SDS011;2764;48.794;8.326;2023-03-19T05:27:03;4.50;;;2.70;;
5483;SDS011;2764;48.794;8.326;2023-03-19T05:28:05;2.83;;;2.53;;
5483;SDS011;2764;48.794;8.326;2023-03-19T05:29:07;3.43;;;3.23;;
5483;SDS011;2764;48.794;8.326;2023-03-19T05:30:11;6.73;;;3.87;;
5483;SDS011;2764;48.794;8.326;2023-03-19T05:31:13;4.43;;;3.60;;
5483;SDS011;2764;48.794;8.326;2023-03-19T05:32:15;7.30;;;3.80;;
5483;SDS011;2764;48.794;8.326;2023-03-19T05:33:16;3.87;;;3.20;;
5483;SDS011;2764;48.794;8.326;2023-03-19T05:34:18;10.83;;;3.60;;
5483;SDS011;2764;48.794;8.326;2023-03-19T05:35:20;4.47;;;3.43;;
5483;SDS011;2764;48.794;8.326;2023-03-19T05:36:22;3.37;;;3.17;;
5483;SDS011;2764;48.794;8.326;2023-03-19T05:37:24;3.23;;;2.93;;
5483;SDS011;2764;48.794;8.326;2023-03-19T05:38:26;3.20;;;2.63;;
5483;SDS011;2764;48.794;8.326;2023-03-19T05:39:27;5.80;;;2.90;;
5483;SDS011;2764;48.794;8.326;2023-03-19T05:40:29;3.27;;;2.90;;
5483;SDS011;2764;48.794;8.326;2023-03-19T05:41:31;2.80;;;2.60;;
5483;SDS011;2764;48.794;8.326;2023-03-19T05:42:33;5.90;;;2.97;;
5483;SDS011;2764;48.794;8.326;2023-03-19T05:43:34;3.57;;;3.27;;
5483;SDS011;2764;48.794;8.326;2023-03-19T05:44:36;6.47;;;4.30;;
5483;SDS011;2764;48.794;8.326;2023-03-19T05:45:38;8.33;;;3.30;;
5483;SDS011;2764;48.794;8.326;2023-03-19T05:46:40;4.83;;;3.00;;
5483;SDS011;2764;48.794;8.326;2023-03-19T05:47:42;2.40;;;2.30;;
5483;SDS011;2764;48.794;8.326;2023-03-19T05:48:45;6.90;;;3.30;;
5483;SDS011;2764;48.794;8.326;2023-03-19T05:49:46;3.63;;;3.33;;
5483;SDS011;2764;48.794;8.326;2023-03-19T05:50:51;4.40;;;2.70;;
5483;SDS011;2764;48.794;8.326;2023-03-19T05:51:53;5.33;;;3.50;;
5483;SDS011;2764;48.794;8.326;2023-03-19T05:52:55;4.10;;;3.70;;
5483;SDS011;2764;48.794;8.326;2023-03-19T05:53:57;5.23;;;3.77;;
5483;SDS011;2764;48.794;8.326;2023-03-19T05:54:59;5.83;;;3.57;;
5483;SDS011;2764;48.794;8.326;2023-03-19T05:56:00;6.30;;;3.17;;
5483;SDS011;2764;48.794;8.326;2023-03-19T05:57:02;3.27;;;3.00;;
5483;SDS011;2764;48.794;8.326;2023-03-19T05:58:05;5.80;;;3.00;;
5483;SDS011;2764;48.794;8.326;2023-03-19T05:59:08;4.40;;;2.37;;
5483;SDS011;2764;48.794;8.326;2023-03-19T06:00:10;3.20;;;2.90;;
5483;SDS011;2764;48.794;8.326;2023-03-19T06:01:12;3.50;;;3.20;;
5483;SDS011;2764;48.794;8.326;2023-03-19T06:02:14;7.40;;;3.90;;
5483;SDS011;2764;48.794;8.326;2023-03-19T06:03:16;3.90;;;3.53;;
5483;SDS011;2764;48.794;8.326;2023-03-19T06:04:17;7.87;;;3.90;;
5483;SDS011;2764;48.794;8.326;2023-03-19T06:05:19;5.63;;;2.93;;
5483;SDS011;2764;48.794;8.326;2023-03-19T06:06:21;5.73;;;3.57;;
5483;SDS011;2764;48.794;8.326;2023-03-19T06:07:23;9.40;;;8.57;;
5483;SDS011;2764;48.794;8.326;2023-03-19T06:08:24;8.43;;;6.40;;
5483;SDS011;2764;48.794;8.326;2023-03-19T06:09:26;5.83;;;3.87;;
5483;SDS011;2764;48.794;8.326;2023-03-19T06:10:28;3.87;;;3.57;;
5483;SDS011;2764;48.794;8.326;2023-03-19T06:11:29;5.60;;;5.10;;
5483;SDS011;2764;48.794;8.326;2023-03-19T06:12:32;9.53;;;6.30;;
5483;SDS011;2764;48.794;8.326;2023-03-19T06:13:33;4.03;;;3.73;;
5483;SDS011;2764;48.794;8.326;2023-03-19T06:14:35;6.13;;;3.10;;
5483;SDS011;2764;48.794;8.326;2023-03-19T06:15:37;4.10;;;3.30;;
5483;SDS011;2764;48.794;8.326;2023-03-19T06:16:38;3.23;;;2.87;;
5483;SDS011;2764;48.794;8.326;2023-03-19T06:17:40;4.03;;;3.10;;
5483;SDS011;2764;48.794;8.326;2023-03-19T06:18:42;5.10;;;3.30;;
5483;SDS011;2764;48.794;8.326;2023-03-19T06:19:44;4.67;;;2.50;;
5483;SDS011;2764;48.794;8.326;2023-03-19T06:20:46;4.20;;;2.77;;
5483;SDS011;2764;48.794;8.326;2023-03-19T06:21:49;5.27;;;2.47;;
5483;SDS011;2764;48.794;8.326;2023-03-19T06:22:51;3.20;;;2.90;;
5483;SDS011;2764;48.794;8.326;2023-03-19T06:23:52;4.37;;;2.03;;
5483;SDS011;2764;48.794;8.326;2023-03-19T06:24:54;5.03;;;2.57;;
5483;SDS011;2764;48.794;8.326;2023-03-19T06:25:56;2.60;;;2.20;;
5483;SDS011;2764;48.794;8.326;2023-03-19T06:26:57;2.20;;;2.10;;
5483;SDS011;2764;48.794;8.326;2023-03-19T06:27:59;2.77;;;2.60;;
5483;SDS011;2764;48.794;8.326;2023-03-19T06:29:00;9.33;;;2.77;;